sensor_id;sensor_type;location;lat;lon;timestamp;pressure;altitude;pressure_sealevel;temperature;humidity
69214;BME280;56325;47.030;18.518;2022-12-07T14:54:58;100377.59;;;5.51;89.11
69214;BME280;56325;47.030;18.518;2022-12-07T14:57:34;100377.44;;;5.58;87.58
69214;BME280;56325;47.030;18.518;2022-12-07T15:05:17;100378.81;;;6.22;89.59
69214;BME280;56325;47.030;18.518;2022-12-07T15:07:28;100378.28;;;5.95;82.64
69214;BME280;56325;47.030;18.518;2022-12-07T15:10:06;100381.84;;;5.91;81.20
69214;BME280;56325;47.030;18.518;2022-12-07T15:12:41;100374.12;;;5.86;80.82
69214;BME280;56325;47.030;18.518;2022-12-07T15:15:15;100383.50;;;5.85;81.24
69214;BME280;56325;47.030;18.518;2022-12-07T15:17:50;100380.66;;;5.73;79.93
69214;BME280;56325;47.030;18.518;2022-12-07T15:20:24;100393.59;;;5.69;82.02
69214;BME280;56325;47.030;18.518;2022-12-07T15:22:59;100387.09;;;5.63;81.92
69214;BME280;56325;47.030;18.518;2022-12-07T15:25:34;100370.97;;;7.98;100.00
69214;BME280;56325;47.030;18.518;2022-12-07T15:28:09;100374.81;;;8.85;100.00
69214;BME280;56325;47.030;18.518;2022-12-07T15:43:31;100388.44;;;6.10;79.31
69214;BME280;56325;47.030;18.518;2022-12-07T15:46:23;100397.22;;;6.02;83.52
69214;BME280;56325;47.030;18.518;2022-12-07T15:48:58;100397.56;;;6.04;85.45
69214;BME280;56325;47.030;18.518;2022-12-07T15:51:33;100398.75;;;6.03;84.31
69214;BME280;56325;47.030;18.518;2022-12-07T16:00:34;100401.41;;;5.86;85.79
69214;BME280;56325;47.030;18.518;2022-12-07T16:13:28;100403.25;;;5.73;83.77
69214;BME280;56325;47.030;18.518;2022-12-07T16:16:05;100405.63;;;5.71;83.49
69214;BME280;56325;47.030;18.518;2022-12-07T16:18:42;100409.22;;;5.68;83.99
69214;BME280;56325;47.030;18.518;2022-12-07T16:21:18;100411.31;;;5.60;84.32
69214;BME280;56325;47.030;18.518;2022-12-07T16:23:57;100412.06;;;5.61;85.03
69214;BME280;56325;47.030;18.518;2022-12-07T16:29:39;100407.88;;;5.56;85.70
69214;BME280;56325;47.030;18.518;2022-12-07T16:32:15;100418.66;;;5.44;86.52
69214;BME280;56325;47.030;18.518;2022-12-07T16:34:49;100406.19;;;5.43;85.78
69214;BME280;56325;47.030;18.518;2022-12-07T16:37:23;100404.78;;;5.35;85.69
69214;BME280;56325;47.030;18.518;2022-12-07T16:39:58;100406.41;;;5.32;86.98
69214;BME280;56325;47.030;18.518;2022-12-07T16:42:33;100408.78;;;5.30;85.98
69214;BME280;56325;47.030;18.518;2022-12-07T16:45:10;100414.88;;;5.38;85.04
69214;BME280;56325;47.030;18.518;2022-12-07T16:47:54;100407.03;;;5.40;85.99
69214;BME280;56325;47.030;18.518;2022-12-07T16:50:28;100411.72;;;5.39;85.61
69214;BME280;56325;47.030;18.518;2022-12-07T16:53:03;100410.25;;;5.35;86.58
69214;BME280;56325;47.030;18.518;2022-12-07T16:55:37;100409.84;;;5.16;86.28
69214;BME280;56325;47.030;18.518;2022-12-07T16:58:14;100408.84;;;5.26;86.32
69214;BME280;56325;47.030;18.518;2022-12-07T17:00:48;100414.72;;;5.25;85.71
69214;BME280;56325;47.030;18.518;2022-12-07T17:03:24;100413.28;;;4.97;86.40
69214;BME280;56325;47.030;18.518;2022-12-07T17:05:58;100413.66;;;4.99;87.65
69214;BME280;56325;47.030;18.518;2022-12-07T17:08:33;100414.13;;;4.94;87.69
69214;BME280;56325;47.030;18.518;2022-12-07T17:11:12;100407.19;;;4.89;87.52
69214;BME280;56325;47.030;18.518;2022-12-07T17:13:47;100417.84;;;4.80;87.67
69214;BME280;56325;47.030;18.518;2022-12-07T17:16:39;100418.62;;;4.81;88.50
69214;BME280;56325;47.030;18.518;2022-12-07T17:19:16;100420.69;;;4.73;88.71
69214;BME280;56325;47.030;18.518;2022-12-07T17:25:19;100430.03;;;4.72;87.89
69214;BME280;56325;47.030;18.518;2022-12-07T17:31:36;100427.75;;;4.71;86.92
69214;BME280;56325;47.030;18.518;2022-12-07T17:34:20;100425.69;;;4.51;87.40
69214;BME280;56325;47.030;18.518;2022-12-07T17:36:55;100412.63;;;9.38;100.00
69214;BME280;56325;47.030;18.518;2022-12-07T17:39:29;100411.38;;;10.54;100.00
69214;BME280;56325;47.030;18.518;2022-12-07T17:42:04;100409.16;;;8.90;100.00
69214;BME280;56325;47.030;18.518;2022-12-07T17:44:56;100428.88;;;7.13;95.57
69214;BME280;56325;47.030;18.518;2022-12-07T17:47:30;100431.88;;;6.21;93.74
69214;BME280;56325;47.030;18.518;2022-12-07T17:50:07;100434.59;;;5.65;91.18
69214;BME280;56325;47.030;18.518;2022-12-07T17:52:42;100432.91;;;5.32;89.43
69214;BME280;56325;47.030;18.518;2022-12-07T17:55:34;100437.81;;;5.40;90.96
69214;BME280;56325;47.030;18.518;2022-12-07T17:58:28;100432.19;;;4.84;88.05
69214;BME280;56325;47.030;18.518;2022-12-07T18:01:07;100440.16;;;4.48;88.25
69214;BME280;56325;47.030;18.518;2022-12-07T18:03:42;100445.12;;;4.53;90.29
69214;BME280;56325;47.030;18.518;2022-12-07T18:06:18;100445.47;;;4.32;89.02
69214;BME280;56325;47.030;18.518;2022-12-07T18:08:52;100446.72;;;4.51;89.38
69214;BME280;56325;47.030;18.518;2022-12-07T18:11:29;100448.31;;;4.48;86.85
69214;BME280;56325;47.030;18.518;2022-12-07T18:14:13;100455.59;;;4.32;86.09
69214;BME280;56325;47.030;18.518;2022-12-07T18:16:48;100460.84;;;4.15;85.69
69214;BME280;56325;47.030;18.518;2022-12-07T18:19:23;100445.59;;;4.21;89.84
69214;BME280;56325;47.030;18.518;2022-12-07T18:21:58;100434.06;;;8.83;100.00
69214;BME280;56325;47.030;18.518;2022-12-07T18:24:33;100434.91;;;9.93;100.00
69214;BME280;56325;47.030;18.518;2022-12-07T18:27:09;100447.97;;;7.45;95.90
69214;BME280;56325;47.030;18.518;2022-12-07T18:29:44;100438.97;;;6.18;93.37
69214;BME280;56325;47.030;18.518;2022-12-07T18:32:18;100445.09;;;5.47;87.81
69214;BME280;56325;47.030;18.518;2022-12-07T18:34:53;100447.16;;;5.19;89.84
69214;BME280;56325;47.030;18.518;2022-12-07T18:37:29;100448.81;;;4.67;89.17
69214;BME280;56325;47.030;18.518;2022-12-07T18:40:06;100445.50;;;4.28;88.61
69214;BME280;56325;47.030;18.518;2022-12-07T18:42:41;100446.94;;;4.10;89.07
69214;BME280;56325;47.030;18.518;2022-12-07T18:45:16;100449.88;;;3.92;87.71
69214;BME280;56325;47.030;18.518;2022-12-07T18:47:50;100457.28;;;3.57;88.32
69214;BME280;56325;47.030;18.518;2022-12-07T18:50:25;100459.03;;;3.41;90.17
69214;BME280;56325;47.030;18.518;2022-12-07T18:53:01;100444.81;;;3.60;90.73
69214;BME280;56325;47.030;18.518;2022-12-07T18:55:37;100451.84;;;3.57;89.59
69214;BME280;56325;47.030;18.518;2022-12-07T18:58:12;100451.44;;;3.59;90.24
69214;BME280;56325;47.030;18.518;2022-12-07T19:00:46;100451.00;;;3.64;89.85
69214;BME280;56325;47.030;18.518;2022-12-07T19:03:21;100450.44;;;3.46;89.81
69214;BME280;56325;47.030;18.518;2022-12-07T19:06:04;100455.78;;;3.53;88.85
69214;BME280;56325;47.030;18.518;2022-12-07T19:08:40;100456.50;;;3.57;87.59
69214;BME280;56325;47.030;18.518;2022-12-07T19:11:16;100456.69;;;3.43;87.70
69214;BME280;56325;47.030;18.518;2022-12-07T19:14:09;100458.41;;;3.26;88.62
69214;BME280;56325;47.030;18.518;2022-12-07T19:17:06;100453.00;;;3.22;87.13
69214;BME280;56325;47.030;18.518;2022-12-07T19:19:42;100449.81;;;3.31;88.68
69214;BME280;56325;47.030;18.518;2022-12-07T19:22:19;100436.50;;;8.05;100.00
69214;BME280;56325;47.030;18.518;2022-12-07T19:24:55;100440.69;;;5.93;100.00
69214;BME280;56325;47.030;18.518;2022-12-07T19:27:30;100438.16;;;4.76;96.40
69214;BME280;56325;47.030;18.518;2022-12-07T19:30:07;100446.31;;;3.99;92.08
69214;BME280;56325;47.030;18.518;2022-12-07T19:32:43;100451.69;;;3.72;91.00
69214;BME280;56325;47.030;18.518;2022-12-07T19:35:18;100451.72;;;3.68;89.72
69214;BME280;56325;47.030;18.518;2022-12-07T19:37:53;100444.81;;;3.60;90.17
69214;BME280;56325;47.030;18.518;2022-12-07T19:40:29;100450.28;;;3.22;89.16
69214;BME280;56325;47.030;18.518;2022-12-07T19:43:04;100451.91;;;3.16;89.09
69214;BME280;56325;47.030;18.518;2022-12-07T19:45:39;100452.09;;;2.95;87.74
69214;BME280;56325;47.030;18.518;2022-12-07T19:48:14;100450.69;;;2.76;89.69
69214;BME280;56325;47.030;18.518;2022-12-07T19:50:48;100444.94;;;2.67;90.35
69214;BME280;56325;47.030;18.518;2022-12-07T19:53:23;100447.44;;;2.44;89.92
69214;BME280;56325;47.030;18.518;2022-12-07T19:55:59;100448.94;;;2.55;90.77
69214;BME280;56325;47.030;18.518;2022-12-07T19:58:34;100444.88;;;2.74;89.96
69214;BME280;56325;47.030;18.518;2022-12-07T20:01:09;100453.59;;;2.55;89.58
69214;BME280;56325;47.030;18.518;2022-12-07T20:03:45;100450.87;;;2.51;90.20
69214;BME280;56325;47.030;18.518;2022-12-07T20:06:21;100453.59;;;2.51;89.93
69214;BME280;56325;47.030;18.518;2022-12-07T20:08:56;100460.44;;;2.67;88.96
69214;BME280;56325;47.030;18.518;2022-12-07T20:11:32;100454.16;;;2.77;89.64
69214;BME280;56325;47.030;18.518;2022-12-07T20:14:24;100433.94;;;6.33;100.00
69214;BME280;56325;47.030;18.518;2022-12-07T20:16:59;100433.56;;;8.63;100.00
69214;BME280;56325;47.030;18.518;2022-12-07T20:19:34;100435.06;;;8.13;100.00
69214;BME280;56325;47.030;18.518;2022-12-07T20:22:09;100455.41;;;6.67;100.00
69214;BME280;56325;47.030;18.518;2022-12-07T20:24:44;100460.94;;;5.32;100.00
69214;BME280;56325;47.030;18.518;2022-12-07T20:27:23;100458.41;;;4.75;100.00
69214;BME280;56325;47.030;18.518;2022-12-07T20:30:00;100459.81;;;4.06;97.56
69214;BME280;56325;47.030;18.518;2022-12-07T20:32:35;100461.22;;;3.87;96.65
69214;BME280;56325;47.030;18.518;2022-12-07T20:35:10;100475.41;;;3.34;92.61
69214;BME280;56325;47.030;18.518;2022-12-07T20:37:44;100472.16;;;3.08;92.54
69214;BME280;56325;47.030;18.518;2022-12-07T20:40:19;100482.13;;;2.74;91.83
69214;BME280;56325;47.030;18.518;2022-12-07T20:42:55;100482.16;;;2.67;93.69
69214;BME280;56325;47.030;18.518;2022-12-07T20:45:30;100479.53;;;2.59;92.66
69214;BME280;56325;47.030;18.518;2022-12-07T20:48:05;100476.56;;;2.40;92.23
69214;BME280;56325;47.030;18.518;2022-12-07T20:50:40;100475.34;;;2.48;92.50
69214;BME280;56325;47.030;18.518;2022-12-07T20:53:15;100480.63;;;2.66;92.96
69214;BME280;56325;47.030;18.518;2022-12-07T20:55:50;100478.28;;;2.68;92.45
69214;BME280;56325;47.030;18.518;2022-12-07T20:58:26;100475.53;;;2.75;90.93
69214;BME280;56325;47.030;18.518;2022-12-07T21:01:01;100467.66;;;2.87;90.27
69214;BME280;56325;47.030;18.518;2022-12-07T21:03:36;100469.56;;;2.94;90.65
69214;BME280;56325;47.030;18.518;2022-12-07T21:06:12;100465.66;;;2.95;90.78
69214;BME280;56325;47.030;18.518;2022-12-07T21:08:49;100454.28;;;6.97;100.00
69214;BME280;56325;47.030;18.518;2022-12-07T21:11:25;100450.94;;;8.94;100.00
69214;BME280;56325;47.030;18.518;2022-12-07T21:14:01;100439.78;;;9.67;100.00
69214;BME280;56325;47.030;18.518;2022-12-07T21:16:36;100449.25;;;8.62;98.56
69214;BME280;56325;47.030;18.518;2022-12-07T21:19:10;100460.56;;;6.29;90.06
69214;BME280;56325;47.030;18.518;2022-12-07T21:21:44;100464.66;;;5.42;90.46
69214;BME280;56325;47.030;18.518;2022-12-07T21:24:19;100457.00;;;4.90;87.76
69214;BME280;56325;47.030;18.518;2022-12-07T21:26:53;100473.06;;;4.04;87.80
69214;BME280;56325;47.030;18.518;2022-12-07T21:29:29;100468.88;;;3.95;88.85
69214;BME280;56325;47.030;18.518;2022-12-07T21:32:15;100473.63;;;3.88;90.66
69214;BME280;56325;47.030;18.518;2022-12-07T21:34:50;100479.50;;;3.49;87.92
69214;BME280;56325;47.030;18.518;2022-12-07T21:37:25;100474.00;;;3.18;89.32
69214;BME280;56325;47.030;18.518;2022-12-07T21:39:59;100477.94;;;3.14;89.97
69214;BME280;56325;47.030;18.518;2022-12-07T21:42:34;100473.88;;;3.33;89.67
69214;BME280;56325;47.030;18.518;2022-12-07T21:45:10;100473.31;;;3.07;89.08
69214;BME280;56325;47.030;18.518;2022-12-07T21:47:44;100479.94;;;3.06;89.16
69214;BME280;56325;47.030;18.518;2022-12-07T21:50:18;100488.13;;;2.99;89.07
69214;BME280;56325;47.030;18.518;2022-12-07T21:52:53;100478.19;;;2.82;89.77
69214;BME280;56325;47.030;18.518;2022-12-07T21:55:27;100478.91;;;2.89;88.55
69214;BME280;56325;47.030;18.518;2022-12-07T21:58:02;100481.22;;;2.91;89.08
69214;BME280;56325;47.030;18.518;2022-12-07T22:00:38;100475.44;;;2.85;90.80
69214;BME280;56325;47.030;18.518;2022-12-07T22:03:13;100478.88;;;2.93;90.45
69214;BME280;56325;47.030;18.518;2022-12-07T22:05:47;100474.37;;;2.72;89.79
69214;BME280;56325;47.030;18.518;2022-12-07T22:08:24;100473.25;;;2.66;91.07
69214;BME280;56325;47.030;18.518;2022-12-07T22:11:00;100482.19;;;2.63;91.26
69214;BME280;56325;47.030;18.518;2022-12-07T22:13:36;100481.44;;;2.62;91.44
69214;BME280;56325;47.030;18.518;2022-12-07T22:16:32;100484.13;;;2.62;91.34
69214;BME280;56325;47.030;18.518;2022-12-07T22:19:07;100479.88;;;2.61;90.83
69214;BME280;56325;47.030;18.518;2022-12-07T22:21:41;100484.50;;;2.68;91.69
69214;BME280;56325;47.030;18.518;2022-12-07T22:24:16;100485.06;;;2.93;90.77
69214;BME280;56325;47.030;18.518;2022-12-07T22:26:50;100479.69;;;2.86;90.39
69214;BME280;56325;47.030;18.518;2022-12-07T22:29:25;100479.66;;;2.93;91.37
69214;BME280;56325;47.030;18.518;2022-12-07T22:32:08;100473.78;;;2.99;89.71
69214;BME280;56325;47.030;18.518;2022-12-07T22:35:03;100484.78;;;2.81;91.10
69214;BME280;56325;47.030;18.518;2022-12-07T22:37:38;100479.72;;;2.83;91.64
69214;BME280;56325;47.030;18.518;2022-12-07T22:40:13;100486.59;;;2.98;91.74
69214;BME280;56325;47.030;18.518;2022-12-07T22:42:48;100477.25;;;3.03;91.76
69214;BME280;56325;47.030;18.518;2022-12-07T22:45:22;100476.78;;;3.11;91.29
69214;BME280;56325;47.030;18.518;2022-12-07T22:47:58;100472.84;;;3.16;91.14
69214;BME280;56325;47.030;18.518;2022-12-07T22:50:32;100471.72;;;3.13;90.29
69214;BME280;56325;47.030;18.518;2022-12-07T22:53:07;100465.16;;;3.11;90.88
69214;BME280;56325;47.030;18.518;2022-12-07T22:55:41;100471.16;;;2.88;90.65
69214;BME280;56325;47.030;18.518;2022-12-07T22:58:17;100475.72;;;2.98;90.79
69214;BME280;56325;47.030;18.518;2022-12-07T23:00:57;100478.00;;;3.03;90.79
69214;BME280;56325;47.030;18.518;2022-12-07T23:03:32;100466.72;;;3.08;90.36
69214;BME280;56325;47.030;18.518;2022-12-07T23:06:09;100472.62;;;3.00;90.41
69214;BME280;56325;47.030;18.518;2022-12-07T23:08:44;100469.59;;;2.87;90.38
69214;BME280;56325;47.030;18.518;2022-12-07T23:11:21;100476.00;;;2.62;90.33
69214;BME280;56325;47.030;18.518;2022-12-07T23:14:14;100475.16;;;2.73;90.87
69214;BME280;56325;47.030;18.518;2022-12-07T23:16:49;100476.75;;;2.63;90.60
69214;BME280;56325;47.030;18.518;2022-12-07T23:19:25;100474.78;;;2.67;91.36
69214;BME280;56325;47.030;18.518;2022-12-07T23:21:59;100468.44;;;2.88;90.28
69214;BME280;56325;47.030;18.518;2022-12-07T23:24:34;100464.69;;;2.71;90.44
69214;BME280;56325;47.030;18.518;2022-12-07T23:27:08;100460.59;;;2.49;90.58
69214;BME280;56325;47.030;18.518;2022-12-07T23:29:42;100460.53;;;2.59;91.28
69214;BME280;56325;47.030;18.518;2022-12-07T23:32:17;100460.78;;;2.76;90.55
69214;BME280;56325;47.030;18.518;2022-12-07T23:34:52;100450.47;;;2.56;90.90
69214;BME280;56325;47.030;18.518;2022-12-07T23:37:27;100456.31;;;2.51;90.96
69214;BME280;56325;47.030;18.518;2022-12-07T23:40:01;100457.16;;;2.41;90.98
69214;BME280;56325;47.030;18.518;2022-12-07T23:42:35;100448.28;;;2.37;91.06
69214;BME280;56325;47.030;18.518;2022-12-07T23:45:10;100456.91;;;2.18;91.40
69214;BME280;56325;47.030;18.518;2022-12-07T23:47:45;100458.03;;;2.24;91.92
69214;BME280;56325;47.030;18.518;2022-12-07T23:50:20;100452.09;;;2.47;91.64
69214;BME280;56325;47.030;18.518;2022-12-07T23:52:55;100450.56;;;2.42;90.90
69214;BME280;56325;47.030;18.518;2022-12-07T23:55:29;100456.38;;;2.44;91.18
69214;BME280;56325;47.030;18.518;2022-12-07T23:58:03;100450.66;;;2.28;90.93
